Time;durP1;ratioP1;P1;durP2;ratioP2;P2;SDS_P1;SDS_P2;PMS_P1;PMS_P2;Temp;Humidity;BMP_temperature;BMP_pressure;BME280_temperature;BME280_humidity;BME280_pressure;Samples;Min_cycle;Max_cycle;Signal;HPM_P1;HPM_P2
2022/07/24 00:02:26;;;;;;;6.60;2.30;;;;;;;21.48;44.52;100536.41;117166;1188;22969;-60
2022/07/24 00:04:56;;;;;;;4.50;2.10;;;;;;;21.45;44.55;100538.34;117109;1182;21852;-60
2022/07/24 00:07:24;;;;;;;3.60;2.10;;;;;;;21.44;44.49;100541.09;116949;1188;21865;-61
2022/07/24 00:09:51;;;;;;;7.70;2.60;;;;;;;21.38;44.47;100542.10;117034;1186;21858;-59
2022/07/24 00:12:18;;;;;;;6.50;2.40;;;;;;;21.34;44.74;100539.33;116896;1186;22980;-60
2022/07/24 00:14:45;;;;;;;3.70;2.10;;;;;;;21.28;44.82;100541.25;116908;1189;23559;-61
2022/07/24 00:17:13;;;;;;;5.50;2.10;;;;;;;21.22;44.96;100543.32;117103;1189;21973;-61
2022/07/24 00:19:40;;;;;;;5.70;2.10;;;;;;;21.15;45.30;100539.25;116897;1185;21921;-61
2022/07/24 00:22:07;;;;;;;4.50;2.00;;;;;;;21.10;45.66;100538.98;116992;1186;21853;-61
2022/07/24 00:24:34;;;;;;;5.00;2.30;;;;;;;21.09;45.62;100538.31;116985;1187;22623;-59
2022/07/24 00:27:01;;;;;;;3.30;2.10;;;;;;;21.09;45.67;100538.48;116962;1190;21850;-61
2022/07/24 00:29:28;;;;;;;3.30;2.20;;;;;;;21.14;45.65;100536.99;116943;1188;21895;-59
2022/07/24 00:31:55;;;;;;;6.40;2.40;;;;;;;21.20;45.38;100534.52;116957;1187;23674;-59
2022/07/24 00:34:22;;;;;;;4.10;2.00;;;;;;;21.19;45.01;100532.23;116861;1185;22526;-58
2022/07/24 00:36:50;;;;;;;7.50;2.40;;;;;;;21.09;45.01;100532.23;117050;1187;23579;-61
2022/07/24 00:39:17;;;;;;;4.80;2.10;;;;;;;20.97;45.03;100531.87;116943;1182;22938;-60
2022/07/24 00:41:44;;;;;;;4.90;2.30;;;;;;;20.83;45.50;100532.23;117150;1185;24161;-60
2022/07/24 00:44:13;;;;;;;6.00;2.70;;;;;;;20.72;45.95;100531.17;117201;1188;21853;-62
2022/07/24 00:46:42;;;;;;;6.20;2.30;;;;;;;20.69;46.30;100529.38;116967;1188;21898;-60
2022/07/24 00:49:16;;;;;;;7.10;2.30;;;;;;;20.72;46.53;100523.69;116930;1186;24203;-62
2022/07/24 00:51:50;;;;;;;3.50;2.30;;;;;;;20.80;46.51;100523.48;116974;1188;21858;-60
2022/07/24 00:54:18;;;;;;;5.40;2.10;;;;;;;20.81;46.32;100523.95;116983;1185;23658;-62
2022/07/24 00:56:46;;;;;;;4.30;2.40;;;;;;;20.76;46.52;100524.88;117052;1185;22623;-60
2022/07/24 00:59:13;;;;;;;4.30;2.40;;;;;;;20.73;46.77;100521.69;117029;1187;23721;-60
2022/07/24 01:01:40;;;;;;;3.80;2.30;;;;;;;20.73;46.92;100525.59;117012;1187;23015;-62
2022/07/24 01:04:08;;;;;;;5.40;2.20;;;;;;;20.77;46.84;100521.98;117176;1186;21967;-60
2022/07/24 01:06:42;;;;;;;5.00;2.50;;;;;;;20.78;46.41;100518.38;116964;1185;23458;-62
2022/07/24 01:09:10;;;;;;;4.30;2.00;;;;;;;20.78;46.36;100511.80;117119;1187;21852;-62
2022/07/24 01:11:38;;;;;;;5.60;2.20;;;;;;;20.74;46.44;100505.90;117295;1185;22616;-60
2022/07/24 01:14:08;;;;;;;5.30;2.30;;;;;;;20.66;46.49;100507.73;117328;1182;23552;-60
2022/07/24 01:16:35;;;;;;;5.20;2.10;;;;;;;20.59;46.46;100507.73;116991;1188;22925;-60
2022/07/24 01:19:03;;;;;;;3.60;1.90;;;;;;;20.56;46.81;100506.85;117338;1185;21878;-61
2022/07/24 01:21:31;;;;;;;5.30;2.40;;;;;;;20.51;46.76;100508.33;117076;1188;23451;-59
2022/07/24 01:23:58;;;;;;;5.00;2.50;;;;;;;20.48;46.92;100502.62;117026;1186;23548;-61
2022/07/24 01:26:25;;;;;;;5.80;2.10;;;;;;;20.46;46.95;100498.82;117280;1185;21854;-59
2022/07/24 01:28:52;;;;;;;7.50;2.30;;;;;;;20.43;47.09;100500.93;117060;1183;22721;-59
2022/07/24 01:31:19;;;;;;;8.20;2.90;;;;;;;20.37;47.15;100503.17;117246;1186;22068;-59
2022/07/24 01:33:47;;;;;;;5.70;2.80;;;;;;;20.35;47.29;100505.79;117180;1186;21886;-59
2022/07/24 01:36:14;;;;;;;5.40;2.30;;;;;;;20.32;47.50;100500.20;117137;1189;21995;-62
2022/07/24 01:38:41;;;;;;;6.10;2.40;;;;;;;20.31;47.58;100496.52;117130;1189;22921;-62
2022/07/24 01:41:09;;;;;;;5.00;2.40;;;;;;;20.31;47.46;100495.83;117358;1185;21897;-59
2022/07/24 01:43:38;;;;;;;10.00;2.70;;;;;;;20.32;47.70;100493.43;117010;1185;24171;-59
2022/07/24 01:46:05;;;;;;;7.60;2.90;;;;;;;20.29;47.76;100495.20;116989;1184;22925;-59
2022/07/24 01:48:34;;;;;;;5.80;2.60;;;;;;;20.26;47.99;100494.31;117177;1185;21846;-59
2022/07/24 01:51:01;;;;;;;5.40;2.70;;;;;;;20.26;48.10;100493.26;116853;1189;23532;-59
2022/07/24 01:53:28;;;;;;;8.40;2.80;;;;;;;20.28;48.24;100492.07;117163;1188;21854;-62
2022/07/24 01:55:55;;;;;;;7.20;2.50;;;;;;;20.31;48.21;100493.89;117019;1185;23566;-62
2022/07/24 01:58:22;;;;;;;9.40;2.70;;;;;;;20.33;48.30;100495.19;117261;1185;22922;-62
2022/07/24 02:00:50;;;;;;;11.40;2.80;;;;;;;20.34;48.31;100495.83;117190;1185;21913;-59
2022/07/24 02:03:18;;;;;;;5.00;3.10;;;;;;;20.34;48.46;100493.86;117041;1185;21842;-59
2022/07/24 02:05:45;;;;;;;8.00;2.60;;;;;;;20.36;48.61;100493.41;117153;1188;22629;-59
2022/07/24 02:08:12;;;;;;;12.60;3.10;;;;;;;20.40;48.66;100487.38;117203;1186;21961;-62
2022/07/24 02:10:40;;;;;;;5.60;2.90;;;;;;;20.45;48.67;100486.71;117131;1185;23625;-59
2022/07/24 02:13:07;;;;;;;4.60;2.40;;;;;;;20.51;48.51;100488.38;117095;1186;22989;-59
2022/07/24 02:15:36;;;;;;;3.70;2.40;;;;;;;20.51;47.97;100488.03;117299;1185;21872;-61
2022/07/24 02:18:06;;;;;;;5.20;2.10;;;;;;;20.46;47.86;100489.70;116955;1187;22979;-59
2022/07/24 02:20:33;;;;;;;10.90;2.60;;;;;;;20.37;47.83;100491.40;117034;1188;21848;-62
2022/07/24 02:23:00;;;;;;;3.90;2.40;;;;;;;20.30;47.92;100491.23;117204;1188;23672;-59
2022/07/24 02:25:28;;;;;;;4.00;2.30;;;;;;;20.25;47.96;100493.84;117246;1185;22621;-59
2022/07/24 02:27:56;;;;;;;6.00;2.40;;;;;;;20.18;48.04;100493.60;117135;1186;23548;-62
2022/07/24 02:30:24;;;;;;;8.20;2.70;;;;;;;20.11;48.31;100490.61;117234;1186;21858;-62
2022/07/24 02:32:51;;;;;;;5.40;2.40;;;;;;;20.06;48.55;100485.86;117126;1189;21870;-59
2022/07/24 02:35:18;;;;;;;4.50;2.70;;;;;;;20.02;48.99;100486.78;117243;1186;23698;-62
2022/07/24 02:37:46;;;;;;;5.40;2.80;;;;;;;19.97;49.18;100487.36;117110;1186;21847;-62
2022/07/24 02:40:14;;;;;;;5.70;2.90;;;;;;;19.91;49.42;100485.15;117149;1188;22658;-62
2022/07/24 02:42:41;;;;;;;6.30;2.90;;;;;;;19.88;49.71;100483.69;117170;1189;22996;-59
2022/07/24 02:45:09;;;;;;;6.30;3.40;;;;;;;19.91;49.67;100481.80;117227;1183;24155;-62
2022/07/24 02:47:50;;;;;;;16.30;3.90;;;;;;;19.96;49.78;100489.75;117291;1186;21858;-62
2022/07/24 02:50:18;;;;;;;9.70;3.50;;;;;;;19.97;49.86;100491.29;117292;1186;21854;-59
2022/07/24 02:52:45;;;;;;;10.50;3.50;;;;;;;19.96;49.89;100488.51;117082;1183;22883;-59
2022/07/24 02:55:12;;;;;;;5.20;2.80;;;;;;;19.98;49.80;100490.90;117219;1182;23721;-59
2022/07/24 02:57:39;;;;;;;7.60;2.80;;;;;;;20.03;49.73;100492.60;117070;1186;23535;-59
2022/07/24 03:00:09;;;;;;;10.70;2.80;;;;;;;20.06;49.59;100490.30;117159;1182;24150;-62
2022/07/24 03:02:37;;;;;;;35.10;4.70;;;;;;;20.09;49.64;100490.55;117113;1188;21853;-62
2022/07/24 03:05:05;;;;;;;19.20;3.60;;;;;;;20.12;49.78;100495.16;117113;1186;23647;-59
2022/07/24 03:07:32;;;;;;;17.60;3.80;;;;;;;20.20;49.82;100493.02;116909;1188;23449;-59
2022/07/24 03:09:59;;;;;;;25.90;3.60;;;;;;;20.33;49.51;100488.06;116965;1188;22621;-59
2022/07/24 03:12:26;;;;;;;14.60;3.40;;;;;;;20.49;49.45;100479.38;117110;1189;21919;-61
2022/07/24 03:14:53;;;;;;;7.20;3.10;;;;;;;20.61;49.20;100477.01;117061;1186;22796;-61
2022/07/24 03:17:21;;;;;;;12.30;3.80;;;;;;;20.68;49.09;100473.45;116991;1188;21923;-61
2022/07/24 03:19:49;;;;;;;11.80;3.60;;;;;;;20.74;49.08;100473.84;117147;1183;21871;-61
2022/07/24 03:22:16;;;;;;;10.20;4.70;;;;;;;20.79;49.13;100471.25;117111;1188;22712;-59
2022/07/24 03:24:43;;;;;;;12.70;6.00;;;;;;;20.84;49.13;100471.70;117099;1187;22924;-62
2022/07/24 03:27:10;;;;;;;13.70;5.20;;;;;;;20.89;49.31;100472.69;116952;1188;22947;-61
2022/07/24 03:29:37;;;;;;;17.30;5.20;;;;;;;20.94;49.37;100467.80;117147;1189;23678;-62
2022/07/24 03:32:05;;;;;;;11.70;4.60;;;;;;;21.00;49.44;100462.96;117181;1186;23631;-59
2022/07/24 03:34:32;;;;;;;15.40;5.90;;;;;;;21.09;49.55;100462.85;117238;1186;21867;-61
2022/07/24 03:36:59;;;;;;;11.70;4.80;;;;;;;21.19;49.73;100462.88;117046;1187;22078;-59
2022/07/24 03:39:26;;;;;;;15.20;4.90;;;;;;;21.29;49.98;100465.89;116989;1186;23628;-59
2022/07/24 03:41:53;;;;;;;20.90;6.10;;;;;;;21.42;50.02;100466.93;116995;1189;23555;-59
2022/07/24 03:44:20;;;;;;;14.20;5.80;;;;;;;21.55;49.94;100469.23;117036;1187;23658;-59
2022/07/24 03:46:48;;;;;;;21.50;6.20;;;;;;;21.71;49.76;100468.73;117110;1188;23610;-59
2022/07/24 03:49:15;;;;;;;17.20;6.80;;;;;;;21.84;49.92;100470.33;117167;1188;22959;-59
2022/07/24 03:51:43;;;;;;;19.50;6.10;;;;;;;21.95;49.73;100470.36;117231;1188;21857;-59
2022/07/24 03:54:10;;;;;;;14.20;6.80;;;;;;;22.06;49.86;100471.53;117115;1189;22154;-63
2022/07/24 03:56:38;;;;;;;14.00;6.30;;;;;;;22.17;49.87;100470.70;117040;1189;21858;-62
2022/07/24 03:59:05;;;;;;;14.00;6.40;;;;;;;22.32;49.67;100466.60;117144;1188;22924;-62
2022/07/24 04:01:32;;;;;;;12.10;4.50;;;;;;;22.47;49.66;100466.08;117320;1186;22310;-62
2022/07/24 04:04:04;;;;;;;10.20;4.40;;;;;;;22.60;49.85;100473.00;117205;1189;21855;-61
2022/07/24 04:06:33;;;;;;;17.20;5.00;;;;;;;22.74;50.33;100467.47;117049;1186;22589;-60
2022/07/24 04:09:01;;;;;;;10.70;3.90;;;;;;;22.91;50.17;100465.36;117356;1185;21849;-59
2022/07/24 04:11:28;;;;;;;17.00;6.10;;;;;;;23.08;49.98;100465.90;117307;1185;21884;-62
2022/07/24 04:13:55;;;;;;;19.10;4.50;;;;;;;23.25;50.05;100460.77;117195;1185;22814;-59
2022/07/24 04:16:22;;;;;;;8.30;4.00;;;;;;;23.41;49.91;100464.20;117029;1188;21864;-62
2022/07/24 04:18:50;;;;;;;9.30;3.50;;;;;;;23.59;50.03;100464.14;117065;1187;21858;-59
2022/07/24 04:21:17;;;;;;;10.50;3.60;;;;;;;23.77;50.04;100466.34;117123;1188;21935;-59
2022/07/24 04:23:44;;;;;;;8.90;3.60;;;;;;;23.94;50.01;100463.41;117247;1185;22703;-63
2022/07/24 04:26:11;;;;;;;20.90;3.80;;;;;;;24.12;49.67;100464.19;116996;1186;22976;-59
2022/07/24 04:28:41;;;;;;;11.50;3.50;;;;;;;24.30;49.62;100463.38;117063;1187;23624;-59
2022/07/24 04:31:09;;;;;;;10.20;3.50;;;;;;;24.49;49.72;100460.27;117323;1186;21905;-61
2022/07/24 04:33:37;;;;;;;8.40;3.40;;;;;;;24.70;49.74;100461.16;117349;1186;21937;-59
2022/07/24 04:36:05;;;;;;;5.30;2.60;;;;;;;24.91;49.68;100459.88;117042;1182;23699;-63
2022/07/24 04:38:33;;;;;;;7.60;3.30;;;;;;;25.11;49.30;100465.08;116975;1186;24212;-64
2022/07/24 04:41:01;;;;;;;5.80;2.50;;;;;;;25.35;49.09;100466.25;117246;1186;21855;-63
2022/07/24 04:43:28;;;;;;;6.50;2.80;;;;;;;25.56;49.22;100463.66;117291;1185;23758;-59
2022/07/24 04:45:55;;;;;;;3.10;2.20;;;;;;;25.76;49.09;100458.79;117141;1185;21853;-63
2022/07/24 04:48:22;;;;;;;4.80;2.60;;;;;;;25.92;48.66;100451.64;117038;1185;21847;-60
2022/07/24 04:50:49;;;;;;;5.70;2.50;;;;;;;26.08;48.36;100448.42;117064;1188;21853;-59
2022/07/24 04:53:16;;;;;;;6.10;2.40;;;;;;;26.26;48.09;100447.15;117468;1182;24180;-59
2022/07/24 04:55:43;;;;;;;5.50;2.80;;;;;;;26.44;47.99;100449.34;117277;1185;22618;-64
2022/07/24 04:58:10;;;;;;;6.10;3.10;;;;;;;26.63;47.75;100449.46;117042;1185;21881;-63
2022/07/24 05:00:39;;;;;;;5.30;2.40;;;;;;;26.81;47.36;100441.61;117365;1186;24166;-60
2022/07/24 05:03:07;;;;;;;5.40;2.90;;;;;;;26.99;46.91;100439.42;117026;1182;22613;-63
2022/07/24 05:05:34;;;;;;;8.80;2.60;;;;;;;27.23;46.59;100433.06;117311;1183;22952;-59
2022/07/24 05:08:01;;;;;;;12.70;2.90;;;;;;;27.48;46.03;100432.98;117365;1183;22798;-62
2022/07/24 05:10:28;;;;;;;6.70;2.40;;;;;;;27.67;45.90;100430.65;117308;1186;23012;-63
2022/07/24 05:12:55;;;;;;;6.30;2.00;;;;;;;27.87;45.33;100427.73;117064;1189;22879;-64
2022/07/24 05:15:28;;;;;;;4.20;2.20;;;;;;;28.03;45.17;100432.36;117097;1189;21855;-63
2022/07/24 05:17:56;;;;;;;7.00;2.30;;;;;;;28.17;44.62;100433.42;117067;1185;22898;-64
2022/07/24 05:20:23;;;;;;;7.70;2.30;;;;;;;28.34;44.37;100432.30;117253;1186;22629;-60
2022/07/24 05:22:52;;;;;;;8.20;2.40;;;;;;;28.53;43.73;100432.28;116983;1188;21865;-60
2022/07/24 05:25:19;;;;;;;4.20;2.20;;;;;;;28.70;43.35;100432.23;117149;1184;21859;-60
2022/07/24 05:27:46;;;;;;;7.70;2.50;;;;;;;28.86;43.23;100431.55;117158;1186;23682;-64
2022/07/24 05:30:13;;;;;;;3.90;2.10;;;;;;;29.04;42.20;100430.52;117115;1182;22619;-64
2022/07/24 05:32:40;;;;;;;3.90;2.00;;;;;;;29.24;41.18;100428.70;116989;1190;21846;-64
2022/07/24 05:35:07;;;;;;;3.30;1.60;;;;;;;29.42;40.28;100431.64;117145;1186;22616;-60
2022/07/24 05:37:34;;;;;;;5.20;1.70;;;;;;;29.54;39.54;100428.92;117372;1186;21855;-64
2022/07/24 05:40:02;;;;;;;4.10;1.80;;;;;;;29.67;39.77;100431.60;117110;1185;23276;-63
2022/07/24 05:42:31;;;;;;;5.50;1.80;;;;;;;29.84;39.76;100432.14;117127;1187;23012;-63
2022/07/24 05:44:58;;;;;;;3.40;1.80;;;;;;;30.14;39.13;100433.05;117202;1185;21870;-64
2022/07/24 05:47:25;;;;;;;3.80;1.90;;;;;;;30.43;38.10;100434.59;117280;1182;23644;-62
2022/07/24 05:49:52;;;;;;;4.60;1.90;;;;;;;30.62;36.68;100434.45;117053;1189;21904;-63
2022/07/24 05:52:19;;;;;;;4.80;1.80;;;;;;;30.73;37.05;100431.23;117000;1185;23644;-63
2022/07/24 05:54:46;;;;;;;5.10;1.60;;;;;;;30.82;37.35;100430.22;117105;1186;23106;-62
2022/07/24 05:57:13;;;;;;;3.80;1.50;;;;;;;30.87;37.65;100428.39;117294;1185;23030;-62
2022/07/24 05:59:41;;;;;;;5.30;1.60;;;;;;;30.99;37.32;100424.72;117067;1189;23461;-63
2022/07/24 06:02:08;;;;;;;2.50;1.60;;;;;;;31.14;37.62;100420.59;117059;1188;22897;-64
2022/07/24 06:04:41;;;;;;;3.30;1.70;;;;;;;31.27;35.92;100419.84;117294;1186;21963;-61
2022/07/24 06:07:09;;;;;;;6.60;2.10;;;;;;;31.38;36.34;100415.70;116940;1185;22986;-63
2022/07/24 06:09:37;;;;;;;2.60;1.50;;;;;;;31.46;36.26;100415.21;117116;1182;22969;-62
2022/07/24 06:12:04;;;;;;;3.50;1.60;;;;;;;31.55;36.03;100413.94;117079;1186;22898;-63
2022/07/24 06:14:31;;;;;;;3.70;1.70;;;;;;;31.66;36.24;100414.69;117010;1184;22011;-64
2022/07/24 06:16:58;;;;;;;3.30;1.40;;;;;;;31.87;36.13;100417.52;116873;1186;22954;-63
2022/07/24 06:19:26;;;;;;;4.30;1.60;;;;;;;32.11;36.51;100415.08;117098;1186;21908;-60
2022/07/24 06:21:54;;;;;;;6.50;1.60;;;;;;;32.29;35.18;100414.53;117108;1189;21848;-64
2022/07/24 06:24:21;;;;;;;2.70;1.60;;;;;;;32.46;36.02;100411.84;117193;1181;23083;-61
2022/07/24 06:26:49;;;;;;;3.90;1.70;;;;;;;32.70;35.87;100406.04;117097;1186;21930;-61
2022/07/24 06:29:36;;;;;;;8.80;2.20;;;;;;;32.98;35.25;100402.27;117001;1186;21857;-64
2022/07/24 06:32:04;;;;;;;3.40;2.00;;;;;;;33.15;34.57;100398.06;116941;1187;21898;-64
2022/07/24 06:34:31;;;;;;;5.80;2.30;;;;;;;33.32;34.54;100397.52;117109;1182;22053;-64
2022/07/24 06:36:59;;;;;;;4.20;1.90;;;;;;;33.48;33.93;100395.96;117135;1186;22661;-61
2022/07/24 06:39:26;;;;;;;4.10;1.80;;;;;;;33.64;33.72;100395.27;117011;1189;21858;-61
2022/07/24 06:41:53;;;;;;;3.20;1.90;;;;;;;33.92;34.29;100389.10;116987;1188;22654;-63
2022/07/24 06:44:22;;;;;;;5.40;2.00;;;;;;;34.15;32.86;100388.37;116924;1188;21857;-64
2022/07/24 06:46:49;;;;;;;6.50;2.00;;;;;;;34.22;32.33;100389.27;117127;1186;22712;-61
2022/07/24 06:49:17;;;;;;;5.60;1.60;;;;;;;34.22;32.52;100391.83;117135;1186;21862;-61
2022/07/24 06:51:44;;;;;;;4.50;1.30;;;;;;;34.32;31.51;100389.55;116962;1185;21861;-63
2022/07/24 06:54:11;;;;;;;4.40;1.40;;;;;;;34.38;31.01;100391.49;117202;1182;21847;-63
2022/07/24 06:56:39;;;;;;;4.50;1.70;;;;;;;34.35;30.98;100390.19;117105;1188;22541;-64
2022/07/24 06:59:06;;;;;;;3.70;1.70;;;;;;;34.29;31.13;100389.80;117149;1186;21954;-61
2022/07/24 07:01:34;;;;;;;4.90;1.80;;;;;;;34.33;31.16;100386.51;117096;1184;21907;-61
2022/07/24 07:04:01;;;;;;;4.30;1.40;;;;;;;34.53;30.91;100387.02;116802;1186;23461;-62
2022/07/24 07:06:29;;;;;;;3.80;1.60;;;;;;;34.66;30.80;100382.36;117063;1189;21958;-62
2022/07/24 07:08:57;;;;;;;3.90;1.80;;;;;;;34.82;30.31;100381.06;117105;1183;23867;-62
2022/07/24 07:11:24;;;;;;;3.70;1.90;;;;;;;34.94;29.56;100378.04;117076;1185;22998;-62
2022/07/24 07:13:51;;;;;;;2.40;1.70;;;;;;;35.04;28.98;100375.04;117303;1186;21845;-63
2022/07/24 07:16:18;;;;;;;3.80;1.60;;;;;;;35.09;28.05;100375.04;117255;1183;22925;-64
2022/07/24 07:18:45;;;;;;;3.50;1.70;;;;;;;35.06;28.67;100378.69;117120;1182;22917;-61
2022/07/24 07:21:15;;;;;;;2.90;1.70;;;;;;;35.04;29.35;100374.39;117211;1187;22792;-61
2022/07/24 07:23:43;;;;;;;;;;;;;;;35.12;28.93;100373.95;117010;1188;21879;-63
2022/07/24 07:26:15;;;;;;;4.50;2.10;;;;;;;35.21;28.80;100368.73;117212;1188;21938;-62
2022/07/24 07:28:43;;;;;;;5.60;1.90;;;;;;;35.30;28.28;100363.69;117117;1186;21921;-63
2022/07/24 07:31:10;;;;;;;2.20;1.40;;;;;;;35.36;27.99;100361.61;117034;1188;23593;-62
2022/07/24 07:33:37;;;;;;;5.70;1.70;;;;;;;35.50;27.89;100363.00;116989;1188;23599;-61
2022/07/24 07:36:05;;;;;;;3.20;1.60;;;;;;;35.55;27.70;100360.96;117044;1185;21858;-63
2022/07/24 07:38:35;;;;;;;3.60;1.60;;;;;;;35.64;28.28;100358.99;117306;1188;21944;-64
2022/07/24 07:41:02;;;;;;;;;;;;;;;35.80;27.77;100358.06;116994;1186;22925;-62
2022/07/24 07:43:30;;;;;;;4.20;2.20;;;;;;;36.02;27.00;100354.38;117193;1189;21894;-63
2022/07/24 07:45:57;;;;;;;6.40;1.80;;;;;;;36.11;27.05;100350.60;117093;1189;22082;-65
2022/07/24 07:48:25;;;;;;;4.60;1.50;;;;;;;36.14;27.38;100353.64;116965;1185;21940;-64
2022/07/24 07:50:52;;;;;;;2.70;1.80;;;;;;;36.18;26.43;100353.36;117028;1189;21853;-63
2022/07/24 07:53:19;;;;;;;5.00;1.70;;;;;;;36.35;26.56;100352.28;117180;1182;21863;-64
2022/07/24 07:55:51;;;;;;;4.30;1.80;;;;;;;36.47;25.68;100348.62;117288;1186;21851;-63
2022/07/24 07:58:19;;;;;;;3.80;1.50;;;;;;;36.42;26.29;100345.52;116934;1188;21875;-63
2022/07/24 08:00:47;;;;;;;5.30;1.60;;;;;;;36.41;26.55;100339.05;117292;1183;22942;-63
2022/07/24 08:03:15;;;;;;;2.90;1.70;;;;;;;36.58;26.78;100336.96;117307;1186;21851;-62
2022/07/24 08:05:48;;;;;;;3.40;1.70;;;;;;;36.88;26.07;100336.88;117226;1185;21865;-62
2022/07/24 08:08:25;;;;;;;3.80;1.60;;;;;;;37.06;25.53;100341.19;117111;1189;22815;-62
2022/07/24 08:10:52;;;;;;;4.50;1.40;;;;;;;37.15;25.69;100339.80;117174;1189;21874;-63
2022/07/24 08:13:20;;;;;;;2.00;1.40;;;;;;;37.38;25.63;100335.77;118159;1183;23563;-62
2022/07/24 08:15:46;;;;;;;2.90;1.40;;;;;;;37.69;25.42;100334.15;117165;1182;22925;-63
2022/07/24 08:18:15;;;;;;;5.10;1.30;;;;;;;37.88;24.67;100331.25;117052;1186;23480;-63
2022/07/24 08:20:44;;;;;;;3.20;1.40;;;;;;;37.97;24.95;100327.95;117191;1185;22805;-62
2022/07/24 08:23:11;;;;;;;3.70;1.70;;;;;;;38.07;24.79;100325.33;117146;1185;21892;-63
2022/07/24 08:25:39;;;;;;;4.50;1.60;;;;;;;38.13;24.34;100325.49;117328;1182;23667;-63
2022/07/24 08:28:06;;;;;;;3.90;1.40;;;;;;;38.29;24.08;100324.01;117297;1183;23917;-64
2022/07/24 08:30:34;;;;;;;4.40;1.80;;;;;;;38.49;23.16;100321.20;117297;1182;22068;-64
2022/07/24 08:33:01;;;;;;;2.20;1.50;;;;;;;38.42;23.80;100326.80;118000;1185;21881;-63
2022/07/24 08:35:29;;;;;;;6.30;1.50;;;;;;;38.24;23.88;100322.36;117304;1183;21884;-62
2022/07/24 08:38:00;;;;;;;6.20;1.40;;;;;;;38.09;23.36;100325.96;116964;1188;21870;-62
2022/07/24 08:40:35;;;;;;;4.00;1.60;;;;;;;37.99;23.20;100324.05;117023;1185;21884;-62
2022/07/24 08:43:03;;;;;;;5.60;2.00;;;;;;;37.95;23.20;100321.69;117297;1186;21854;-62
2022/07/24 08:45:35;;;;;;;7.40;1.80;;;;;;;37.90;23.81;100319.27;117280;1183;22834;-62
2022/07/24 08:48:04;;;;;;;3.50;1.80;;;;;;;37.99;23.56;100314.83;117247;1183;22914;-62
2022/07/24 08:50:33;;;;;;;4.60;2.00;;;;;;;38.07;23.02;100314.41;117135;1188;21861;-62
2022/07/24 08:53:02;;;;;;;3.80;1.60;;;;;;;38.10;22.92;100317.27;117344;1182;23586;-62
2022/07/24 08:55:30;;;;;;;6.20;1.70;;;;;;;38.17;22.86;100313.28;117317;1186;21857;-62
2022/07/24 08:57:59;;;;;;;3.80;1.60;;;;;;;38.24;21.69;100318.48;117201;1188;24610;-62
2022/07/24 09:00:27;;;;;;;3.20;1.70;;;;;;;38.29;22.47;100320.66;117241;1185;21900;-63
2022/07/24 09:02:55;;;;;;;2.10;1.60;;;;;;;38.25;22.49;100315.19;117102;1189;22924;-62
2022/07/24 09:05:23;;;;;;;3.10;1.90;;;;;;;38.29;22.49;100320.84;117101;1188;23771;-63
2022/07/24 09:08:05;;;;;;;2.30;1.60;;;;;;;38.31;22.84;100313.41;117145;1188;21864;-63
2022/07/24 09:10:33;;;;;;;2.30;1.50;;;;;;;38.38;22.73;100306.05;117275;1182;21969;-62
2022/07/24 09:13:15;;;;;;;4.50;1.80;;;;;;;38.43;22.16;100305.15;117190;1186;22811;-62
2022/07/24 09:15:46;;;;;;;6.10;2.10;;;;;;;38.32;21.87;100306.52;117322;1185;23583;-62
2022/07/24 09:18:30;;;;;;;2.90;1.60;;;;;;;38.17;21.84;100304.79;116940;1188;22647;-62
2022/07/24 09:21:11;;;;;;;6.80;2.30;;;;;;;38.17;22.06;100305.73;117109;1186;21855;-62
2022/07/24 09:23:39;;;;;;;7.20;2.80;;;;;;;38.18;21.76;100303.78;117348;1182;23544;-62
2022/07/24 09:26:06;;;;;;;34.30;4.40;;;;;;;38.08;21.37;100301.58;117217;1183;21858;-62
2022/07/24 09:28:49;;;;;;;6.50;2.00;;;;;;;38.04;22.15;100305.09;117179;1183;23729;-62
2022/07/24 09:31:17;;;;;;;4.90;2.00;;;;;;;38.03;21.66;100302.43;117343;1183;21855;-62
2022/07/24 09:33:45;;;;;;;6.60;1.90;;;;;;;37.99;21.54;100296.57;117190;1185;21871;-62
2022/07/24 09:36:13;;;;;;;5.90;2.20;;;;;;;37.99;21.76;100292.77;117263;1187;22994;-63
2022/07/24 09:38:49;;;;;;;2.60;1.50;;;;;;;38.08;21.87;100287.67;117358;1185;22473;-62
2022/07/24 09:41:23;;;;;;;14.30;2.90;;;;;;;38.35;21.80;100285.99;117444;1182;22350;-62
2022/07/24 09:43:58;;;;;;;9.60;1.90;;;;;;;38.58;21.35;100280.27;117143;1188;21857;-63
2022/07/24 09:46:29;;;;;;;6.50;2.00;;;;;;;38.68;21.70;100278.93;117128;1185;21885;-64
2022/07/24 09:48:58;;;;;;;7.40;2.00;;;;;;;38.74;21.54;100280.85;117351;1182;23671;-64
2022/07/24 09:51:27;;;;;;;2.60;1.80;;;;;;;38.73;21.53;100276.76;117193;1187;21865;-64
2022/07/24 09:53:58;;;;;;;4.40;1.80;;;;;;;38.82;21.12;100276.78;117188;1188;21857;-64
2022/07/24 09:56:27;;;;;;;4.90;1.90;;;;;;;38.89;21.72;100267.46;117351;1186;22003;-64
2022/07/24 09:58:56;;;;;;;5.40;1.80;;;;;;;39.02;20.98;100261.73;117495;1185;22645;-65
2022/07/24 10:01:25;;;;;;;5.70;2.30;;;;;;;39.16;21.28;100262.75;117379;1185;22682;-65
2022/07/24 10:03:53;;;;;;;5.50;1.70;;;;;;;39.34;21.16;100273.11;117347;1182;22922;-65
2022/07/24 10:06:22;;;;;;;7.20;1.60;;;;;;;39.36;20.99;100275.31;117171;1182;23449;-64
2022/07/24 10:08:50;;;;;;;2.60;1.70;;;;;;;39.44;20.85;100270.20;117169;1189;22905;-65
2022/07/24 10:11:19;;;;;;;13.60;2.00;;;;;;;39.45;20.72;100262.48;117329;1182;23856;-65
2022/07/24 10:13:46;;;;;;;6.90;1.60;;;;;;;39.47;20.64;100255.61;117093;1186;22805;-64
2022/07/24 10:16:13;;;;;;;6.00;1.60;;;;;;;39.54;20.62;100259.38;117147;1186;22622;-65
2022/07/24 10:18:52;;;;;;;4.20;1.70;;;;;;;39.52;20.68;100259.47;117131;1182;21866;-65
2022/07/24 10:21:20;;;;;;;4.70;1.60;;;;;;;39.59;20.88;100259.42;117336;1186;22914;-64
2022/07/24 10:23:53;;;;;;;2.70;1.30;;;;;;;39.94;21.19;100254.10;117120;1185;21857;-65
2022/07/24 10:26:51;;;;;;;2.90;1.80;;;;;;;40.37;20.56;100252.84;117158;1186;22043;-65
2022/07/24 10:29:19;;;;;;;8.20;1.70;;;;;;;40.60;20.46;100251.95;117191;1186;21856;-65
2022/07/24 10:31:50;;;;;;;6.90;1.90;;;;;;;40.76;19.54;100255.19;117109;1182;22998;-65
2022/07/24 10:34:25;;;;;;;8.30;2.00;;;;;;;40.68;19.77;100253.40;117050;1188;23886;-62
2022/07/24 10:37:25;;;;;;;5.10;2.00;;;;;;;40.70;19.97;100250.76;117238;1185;21891;-63
2022/07/24 10:40:11;;;;;;;3.70;1.40;;;;;;;40.94;19.92;100238.26;117116;1184;24063;-65
2022/07/24 10:43:05;;;;;;;2.50;1.60;;;;;;;40.97;19.19;100243.16;116986;1187;22912;-66
2022/07/24 10:45:33;;;;;;;2.40;1.50;;;;;;;40.93;19.05;100245.73;117045;1188;21854;-65
2022/07/24 10:48:25;;;;;;;4.20;1.70;;;;;;;40.91;19.17;100247.57;117185;1185;22323;-63
2022/07/24 10:51:07;;;;;;;16.70;2.60;;;;;;;40.84;18.73;100243.81;117218;1186;22925;-63
2022/07/24 10:53:37;;;;;;;2.60;1.80;;;;;;;40.76;19.09;100244.16;117253;1182;21864;-62
2022/07/24 10:56:27;;;;;;;4.40;1.70;;;;;;;40.76;19.20;100243.23;117262;1186;22916;-63
2022/07/24 10:59:09;;;;;;;4.40;1.90;;;;;;;40.72;18.99;100240.73;117364;1183;22916;-63
2022/07/24 11:01:44;;;;;;;5.00;1.90;;;;;;;40.55;19.15;100239.30;117031;1188;23675;-64
2022/07/24 11:04:22;;;;;;;4.60;1.70;;;;;;;40.46;18.80;100237.01;117282;1186;21855;-63
2022/07/24 11:06:50;;;;;;;3.60;1.90;;;;;;;40.59;18.96;100238.29;117105;1187;23715;-63
2022/07/24 11:09:19;;;;;;;3.00;1.80;;;;;;;40.90;18.64;100240.32;117158;1183;23582;-63
2022/07/24 11:11:53;;;;;;;3.20;1.90;;;;;;;40.96;18.30;100241.38;117188;1186;21866;-63
2022/07/24 11:14:37;;;;;;;4.00;2.00;;;;;;;40.74;18.42;100244.28;117339;1186;21895;-63
2022/07/24 11:17:38;;;;;;;5.00;1.80;;;;;;;40.63;18.76;100239.87;117132;1188;21875;-63
2022/07/24 11:20:07;;;;;;;5.10;1.60;;;;;;;40.74;19.08;100238.48;117151;1188;21873;-63
2022/07/24 11:22:54;;;;;;;3.20;1.40;;;;;;;40.72;18.99;100237.17;116871;1185;23796;-63
2022/07/24 11:25:22;;;;;;;11.20;2.80;;;;;;;40.65;18.99;100238.52;117014;1187;21861;-66
2022/07/24 11:28:07;;;;;;;3.50;1.60;;;;;;;40.62;18.94;100239.11;117272;1183;21857;-64